Time;durP1;ratioP1;P1;durP2;ratioP2;P2;SDS_P1;SDS_P2;PMS_P1;PMS_P2;Temp;Humidity;BMP_temperature;BMP_pressure;BME280_temperature;BME280_humidity;BME280_pressure;Samples;Min_cycle;Max_cycle;Signal;HPM_P1;HPM_P2
2023/06/14 00:00:42;;;;;;;5.30;4.22;;;;;;;18.21;68.25;94683.03;5069648;28;20514;-77
2023/06/14 00:03:11;;;;;;;8.27;4.20;;;;;;;18.17;68.32;94680.47;5085905;28;20032;-76
2023/06/14 00:05:40;;;;;;;6.25;4.60;;;;;;;18.16;68.33;94687.28;5087169;28;20059;-78
2023/06/14 00:08:09;;;;;;;5.68;4.20;;;;;;;18.12;68.42;94684.00;5085971;28;20032;-76
2023/06/14 00:10:41;;;;;;;7.22;4.30;;;;;;;18.12;68.56;94672.06;5085784;28;20047;-76
2023/06/14 00:13:09;;;;;;;5.10;4.47;;;;;;;18.14;68.12;94677.94;5086416;28;20024;-76
2023/06/14 00:15:35;;;;;;;7.97;4.47;;;;;;;18.12;68.33;94672.88;5052163;28;20036;-76
2023/06/14 00:18:01;;;;;;;5.03;4.22;;;;;;;18.13;68.57;94679.94;5085921;28;20058;-76
2023/06/14 00:20:28;;;;;;;6.90;4.70;;;;;;;18.06;68.18;94677.59;5085389;28;20024;-76
2023/06/14 00:22:55;;;;;;;5.20;4.40;;;;;;;18.10;68.64;94675.34;5085773;28;20034;-75
2023/06/14 00:25:22;;;;;;;5.38;4.15;;;;;;;18.07;68.61;94676.34;5087332;28;20131;-78
2023/06/14 00:27:47;;;;;;;5.32;4.18;;;;;;;18.06;68.28;94672.03;5085594;28;20344;-75
2023/06/14 00:30:13;;;;;;;7.85;4.38;;;;;;;18.08;68.50;94668.78;5086027;28;20032;-75
2023/06/14 00:32:38;;;;;;;6.00;4.68;;;;;;;18.09;68.25;94673.06;5085437;28;20161;-77
2023/06/14 00:35:04;;;;;;;5.43;4.03;;;;;;;18.04;68.51;94661.41;5087506;28;20028;-77
2023/06/14 00:37:29;;;;;;;4.53;4.03;;;;;;;18.04;68.20;94661.41;5086648;28;20073;-77
2023/06/14 00:39:55;;;;;;;6.75;4.43;;;;;;;18.00;68.60;94663.63;5087015;28;20124;-76
2023/06/14 00:42:27;;;;;;;6.30;4.28;;;;;;;17.99;68.40;94661.34;5086794;28;20024;-77
2023/06/14 00:44:53;;;;;;;7.25;4.15;;;;;;;17.98;68.38;94662.59;5085036;28;20059;-76
2023/06/14 00:47:19;;;;;;;4.65;3.90;;;;;;;17.99;68.51;94664.88;5068459;28;20055;-76
2023/06/14 00:49:48;;;;;;;5.68;4.35;;;;;;;17.97;68.96;94663.88;5085048;28;20020;-75
2023/06/14 00:52:14;;;;;;;5.22;4.72;;;;;;;17.99;69.24;94666.91;5069048;28;20177;-75
2023/06/14 00:54:41;;;;;;;5.30;4.45;;;;;;;17.93;69.42;94652.94;5085102;28;20035;-75
2023/06/14 00:57:07;;;;;;;5.28;4.75;;;;;;;17.99;69.17;94658.56;5085533;28;20026;-75
2023/06/14 00:59:32;;;;;;;6.07;4.68;;;;;;;17.98;69.31;94655.03;5085471;28;20020;-75
2023/06/14 01:01:58;;;;;;;7.53;4.43;;;;;;;17.97;69.53;94658.31;5086622;28;20028;-75
2023/06/14 01:04:23;;;;;;;6.82;5.10;;;;;;;17.97;69.45;94666.66;5085125;28;20035;-77
2023/06/14 01:07:13;;;;;;;6.13;5.20;;;;;;;18.00;69.52;94663.63;5084970;28;20028;-77
2023/06/14 01:09:48;;;;;;;6.70;4.90;;;;;;;17.98;69.12;94665.38;5085376;28;20660;-76
2023/06/14 01:12:17;;;;;;;5.97;4.90;;;;;;;17.98;69.01;94652.25;5086625;28;20024;-76
2023/06/14 01:14:42;;;;;;;6.55;5.20;;;;;;;17.95;68.77;94646.91;5084983;28;20028;-77
2023/06/14 01:17:15;;;;;;;6.85;5.25;;;;;;;17.96;69.05;94649.19;5086665;28;20434;-75
2023/06/14 01:19:42;;;;;;;5.95;4.90;;;;;;;17.99;68.81;94653.75;5086763;28;20024;-75
2023/06/14 01:22:08;;;;;;;8.55;5.90;;;;;;;17.99;68.88;94658.56;5085494;28;20058;-74
2023/06/14 01:24:34;;;;;;;6.72;5.47;;;;;;;18.00;68.81;94658.06;5068010;28;20020;-75
2023/06/14 01:27:00;;;;;;;6.80;5.53;;;;;;;17.99;69.00;94664.13;5070351;28;20605;-75
2023/06/14 01:29:27;;;;;;;6.53;5.57;;;;;;;17.98;68.85;94652.25;5072090;28;20115;-76
2023/06/14 01:31:53;;;;;;;6.80;5.55;;;;;;;17.99;68.91;94658.56;5090573;28;20016;-76
2023/06/14 01:34:19;;;;;;;6.45;5.78;;;;;;;17.95;68.59;94652.44;5089110;28;20023;-76
2023/06/14 01:36:45;;;;;;;7.05;5.80;;;;;;;17.96;68.78;94651.97;5088674;28;20024;-76
2023/06/14 01:39:13;;;;;;;6.30;5.70;;;;;;;17.93;68.66;94652.19;5089220;28;20098;-76
2023/06/14 01:41:40;;;;;;;9.27;5.85;;;;;;;17.89;68.62;94651.66;5088865;28;20028;-76
2023/06/14 01:44:06;;;;;;;7.25;5.10;;;;;;;17.89;69.04;94660.78;5089150;28;20463;-76
2023/06/14 01:46:31;;;;;;;8.30;5.38;;;;;;;17.85;68.61;94662.25;5088837;28;20107;-76
2023/06/14 01:48:56;;;;;;;6.82;5.43;;;;;;;17.83;68.94;94653.63;5088404;28;20134;-77
2023/06/14 01:51:22;;;;;;;6.93;6.00;;;;;;;17.85;68.88;94651.13;5088708;28;20030;-76
2023/06/14 01:53:48;;;;;;;6.32;5.47;;;;;;;17.84;68.78;94658.69;5088493;28;20040;-76
2023/06/14 01:56:13;;;;;;;7.82;6.25;;;;;;;17.83;68.95;94657.16;5088613;28;20032;-76
2023/06/14 01:58:40;;;;;;;6.95;5.53;;;;;;;17.83;69.32;94671.06;5088451;28;20513;-76
2023/06/14 02:01:06;;;;;;;7.10;5.65;;;;;;;17.85;68.88;94673.38;5071686;28;20040;-76
2023/06/14 02:03:32;;;;;;;7.78;5.68;;;;;;;17.81;68.94;94673.56;5088567;28;20020;-76
2023/06/14 02:05:58;;;;;;;9.63;5.57;;;;;;;17.82;69.00;94674.34;5088221;28;20062;-76
2023/06/14 02:08:24;;;;;;;6.05;5.40;;;;;;;17.78;68.76;94672.53;5089541;28;20081;-76
2023/06/14 02:10:49;;;;;;;6.47;5.50;;;;;;;17.79;69.05;94681.66;5088288;28;20513;-76
2023/06/14 02:13:14;;;;;;;7.90;5.80;;;;;;;17.81;68.88;94684.69;5088298;28;20023;-77
2023/06/14 02:15:43;;;;;;;6.60;5.72;;;;;;;17.76;69.16;94682.63;5088178;28;20123;-76
2023/06/14 02:18:09;;;;;;;7.28;5.38;;;;;;;17.78;68.79;94686.44;5087945;28;20518;-76
2023/06/14 02:20:35;;;;;;;6.35;5.72;;;;;;;17.78;69.04;94692.00;5089547;28;20483;-76
2023/06/14 02:23:01;;;;;;;7.72;5.90;;;;;;;17.80;68.91;94687.97;5054746;28;20062;-76
2023/06/14 02:25:29;;;;;;;10.77;5.80;;;;;;;17.81;69.06;94695.06;5088103;28;20090;-76
2023/06/14 02:27:55;;;;;;;6.70;5.38;;;;;;;17.77;69.12;94690.47;5088198;28;20027;-77
2023/06/14 02:30:21;;;;;;;5.68;4.85;;;;;;;17.78;68.82;94692.00;5088036;28;20024;-76
2023/06/14 02:32:48;;;;;;;6.57;5.70;;;;;;;17.78;68.59;94692.00;5089377;28;20111;-75
2023/06/14 02:35:13;;;;;;;12.80;5.82;;;;;;;17.73;68.73;94689.94;5087797;28;20093;-76
2023/06/14 02:37:39;;;;;;;5.35;4.85;;;;;;;17.76;68.88;94690.97;5089716;28;20040;-76
2023/06/14 02:40:06;;;;;;;5.70;4.97;;;;;;;17.75;68.68;94687.41;5087868;28;20034;-76
2023/06/14 02:42:31;;;;;;;5.68;4.95;;;;;;;17.73;68.70;94689.94;5087678;28;20035;-77
2023/06/14 02:44:56;;;;;;;5.78;5.10;;;;;;;17.73;68.79;94684.38;5070982;28;20398;-76
2023/06/14 02:47:22;;;;;;;8.45;5.18;;;;;;;17.70;68.60;94682.53;5087738;28;20020;-76
2023/06/14 02:49:47;;;;;;;6.20;5.60;;;;;;;17.69;68.58;94674.69;5088953;28;20020;-76
2023/06/14 02:52:13;;;;;;;7.88;4.95;;;;;;;17.69;68.99;94672.66;5070391;28;20356;-77
2023/06/14 02:54:38;;;;;;;5.32;4.78;;;;;;;17.66;68.74;94678.44;5087584;28;20016;-76
2023/06/14 02:57:04;;;;;;;6.63;4.60;;;;;;;17.72;68.66;94684.84;5087238;28;20035;-76
2023/06/14 02:59:29;;;;;;;5.88;4.60;;;;;;;17.68;68.75;94682.25;5088655;28;20512;-76
2023/06/14 03:01:55;;;;;;;5.40;4.80;;;;;;;17.71;68.46;94684.06;5070711;28;20543;-76
2023/06/14 03:04:20;;;;;;;6.72;4.68;;;;;;;17.69;68.76;94696.94;5088102;28;20406;-76
2023/06/14 03:06:50;;;;;;;6.85;4.90;;;;;;;17.71;68.74;94695.16;5070690;28;20400;-76
2023/06/14 03:09:16;;;;;;;7.32;4.50;;;;;;;17.71;68.33;94702.75;5070350;28;20028;-77
2023/06/14 03:11:41;;;;;;;7.03;5.45;;;;;;;17.71;68.56;94697.19;5070262;28;20406;-76
2023/06/14 03:14:08;;;;;;;5.82;4.47;;;;;;;17.70;68.36;94702.00;5070118;28;20024;-77
2023/06/14 03:16:33;;;;;;;7.13;4.72;;;;;;;17.68;68.70;94704.50;5087133;28;20375;-77
2023/06/14 03:18:59;;;;;;;6.75;4.97;;;;;;;17.70;68.63;94709.56;5088637;28;20085;-76
2023/06/14 03:21:25;;;;;;;6.47;5.00;;;;;;;17.68;68.71;94710.06;5086890;28;20497;-76
2023/06/14 03:23:51;;;;;;;7.35;5.00;;;;;;;17.71;68.66;94717.41;5087474;28;20483;-75
2023/06/14 03:26:19;;;;;;;8.80;5.00;;;;;;;17.75;68.83;94718.00;5088080;28;20024;-75
2023/06/14 03:28:45;;;;;;;6.10;5.32;;;;;;;17.74;68.99;94712.94;5088304;28;20062;-75
2023/06/14 03:31:12;;;;;;;6.75;5.60;;;;;;;17.73;69.05;94712.16;5086693;28;20055;-76
2023/06/14 03:33:37;;;;;;;8.00;5.75;;;;;;;17.81;68.86;94717.28;5086912;28;20105;-74
2023/06/14 03:36:03;;;;;;;7.28;5.25;;;;;;;17.80;68.55;94710.22;5070259;28;20074;-75
2023/06/14 03:38:28;;;;;;;10.55;5.90;;;;;;;17.73;69.15;94714.94;5086442;28;20051;-75
2023/06/14 03:40:54;;;;;;;7.93;5.03;;;;;;;17.78;68.52;94716.28;5070492;28;20082;-75
2023/06/14 03:43:19;;;;;;;7.20;5.05;;;;;;;17.79;68.53;94709.44;5089001;28;20039;-76
2023/06/14 03:45:45;;;;;;;7.93;4.95;;;;;;;17.82;68.63;94713.25;5069574;28;20028;-76
2023/06/14 03:48:10;;;;;;;6.25;4.95;;;;;;;17.87;68.58;94715.34;5087501;28;20533;-75
2023/06/14 03:50:37;;;;;;;9.02;5.60;;;;;;;17.84;68.43;94714.31;5068818;28;20024;-76
2023/06/14 03:53:06;;;;;;;7.55;4.97;;;;;;;17.78;68.35;94705.91;5069689;28;20517;-75
2023/06/14 03:55:31;;;;;;;6.32;5.30;;;;;;;17.83;68.55;94709.22;5086213;28;20043;-75
2023/06/14 03:57:57;;;;;;;8.70;5.22;;;;;;;17.88;68.31;94719.63;5069560;28;20410;-75
2023/06/14 04:00:23;;;;;;;8.98;5.00;;;;;;;17.88;68.27;94717.63;5087423;28;20108;-75
2023/06/14 04:02:48;;;;;;;5.78;4.75;;;;;;;17.87;68.31;94720.91;5087768;28;20400;-76
2023/06/14 04:05:16;;;;;;;6.80;4.72;;;;;;;17.93;67.88;94716.91;5085594;28;20469;-75
2023/06/14 04:07:44;;;;;;;5.20;4.47;;;;;;;17.96;68.00;94717.97;5069263;28;20030;-75
2023/06/14 04:10:11;;;;;;;6.68;4.50;;;;;;;17.98;67.60;94716.22;5086082;28;20032;-74
2023/06/14 04:12:36;;;;;;;5.32;4.65;;;;;;;18.03;67.29;94723.09;5087696;28;20030;-75
2023/06/14 04:15:02;;;;;;;7.88;5.28;;;;;;;18.03;67.39;94711.97;5086175;28;20111;-75
2023/06/14 04:17:28;;;;;;;7.05;4.85;;;;;;;18.09;67.00;94718.34;5085383;28;20020;-75
2023/06/14 04:19:53;;;;;;;10.18;5.68;;;;;;;18.12;67.41;94714.59;5069165;28;20474;-74
2023/06/14 04:22:19;;;;;;;5.60;4.85;;;;;;;18.13;67.05;94716.09;5068379;28;20115;-74
2023/06/14 04:24:44;;;;;;;7.60;5.47;;;;;;;18.19;67.15;94714.13;5087122;28;20024;-75
2023/06/14 04:27:10;;;;;;;7.07;5.53;;;;;;;18.16;67.60;94726.25;5087088;28;20148;-75
2023/06/14 04:29:36;;;;;;;7.60;5.18;;;;;;;18.26;67.05;94718.50;5085175;28;20028;-76
2023/06/14 04:32:01;;;;;;;7.82;5.50;;;;;;;18.36;66.94;94721.88;5068825;28;20439;-76
2023/06/14 04:34:29;;;;;;;7.03;5.20;;;;;;;18.41;66.62;94724.72;5085373;28;20485;-76
2023/06/14 04:36:56;;;;;;;9.07;5.10;;;;;;;18.43;66.75;94721.41;5085848;28;20020;-76
2023/06/14 04:39:22;;;;;;;8.98;5.38;;;;;;;18.40;67.28;94717.59;5086509;28;20024;-74
2023/06/14 04:41:47;;;;;;;7.57;5.63;;;;;;;18.50;67.04;94720.97;5086955;28;20032;-75
2023/06/14 04:44:13;;;;;;;6.82;5.30;;;;;;;18.55;66.99;94723.78;5085693;28;20028;-75
2023/06/14 04:46:48;;;;;;;6.72;4.90;;;;;;;18.54;67.20;94711.13;5086498;28;20119;-74
2023/06/14 04:49:17;;;;;;;5.75;4.68;;;;;;;18.70;66.70;94726.47;5087007;28;20054;-75
2023/06/14 04:51:43;;;;;;;6.75;4.82;;;;;;;18.82;66.33;94735.66;5085545;28;20028;-75
2023/06/14 04:54:15;;;;;;;8.02;6.45;;;;;;;18.76;66.58;94726.50;5085690;28;20020;-75
2023/06/14 04:56:42;;;;;;;5.78;5.15;;;;;;;18.77;66.38;94728.81;5085528;28;20119;-76
2023/06/14 04:59:08;;;;;;;5.50;4.90;;;;;;;18.87;66.35;94729.38;5085766;28;20063;-75
2023/06/14 05:01:34;;;;;;;9.35;5.47;;;;;;;18.81;66.40;94734.91;5086367;28;20060;-74
2023/06/14 05:03:59;;;;;;;6.05;5.32;;;;;;;18.83;66.47;94737.94;5085395;28;20044;-77
2023/06/14 05:06:28;;;;;;;6.70;5.47;;;;;;;18.97;66.04;94739.03;5084594;28;20117;-78
2023/06/14 05:08:54;;;;;;;10.30;5.65;;;;;;;18.96;66.11;94739.56;5084081;28;20445;-77
2023/06/14 05:11:20;;;;;;;7.95;5.68;;;;;;;19.01;65.99;94742.38;5068961;28;20031;-80
2023/06/14 05:13:46;;;;;;;7.72;6.18;;;;;;;18.99;66.37;94744.91;5085061;28;20351;-76
2023/06/14 05:16:12;;;;;;;8.18;6.20;;;;;;;19.06;66.17;94749.25;5084480;28;20043;-76
2023/06/14 05:18:38;;;;;;;10.10;5.90;;;;;;;19.11;66.05;94751.31;5084518;28;20028;-76
2023/06/14 05:21:05;;;;;;;7.80;6.55;;;;;;;19.12;65.70;94750.03;5085279;28;20468;-76
2023/06/14 05:23:30;;;;;;;8.43;6.40;;;;;;;19.22;65.56;94750.59;5068148;28;20028;-77
2023/06/14 05:25:56;;;;;;;8.70;6.50;;;;;;;19.21;65.35;94757.41;5067824;28;20036;-76
2023/06/14 05:28:22;;;;;;;7.10;5.80;;;;;;;19.25;65.18;94764.28;5086416;28;20020;-76
2023/06/14 05:30:47;;;;;;;8.07;6.68;;;;;;;19.22;65.42;94772.91;5084996;28;20067;-76
2023/06/14 05:33:13;;;;;;;8.95;6.20;;;;;;;19.34;65.07;94774.50;5068559;28;20024;-76
2023/06/14 05:35:39;;;;;;;9.02;6.55;;;;;;;19.43;64.74;94767.94;5067799;28;20456;-76
2023/06/14 05:38:05;;;;;;;10.48;7.20;;;;;;;19.39;64.72;94773.75;5068645;28;20036;-77
2023/06/14 05:40:32;;;;;;;9.35;7.13;;;;;;;19.44;64.15;94773.03;5084694;28;20032;-77
2023/06/14 05:42:57;;;;;;;9.65;7.70;;;;;;;19.50;64.39;94773.81;5086459;28;20383;-77
2023/06/14 05:45:23;;;;;;;8.80;6.20;;;;;;;19.48;64.73;94770.75;5068037;28;20047;-77
2023/06/14 05:47:48;;;;;;;8.43;5.82;;;;;;;19.60;64.00;94777.94;5067581;28;20414;-78
2023/06/14 05:50:14;;;;;;;8.20;6.38;;;;;;;19.61;64.13;94775.91;5068071;28;20051;-77
2023/06/14 05:52:39;;;;;;;9.95;7.38;;;;;;;19.59;64.25;94776.41;5067808;28;20123;-77
2023/06/14 05:55:05;;;;;;;8.80;6.60;;;;;;;19.65;63.74;94770.84;5068471;28;20028;-77
2023/06/14 05:57:31;;;;;;;10.13;7.15;;;;;;;19.70;64.23;94774.94;5084840;28;20427;-77
2023/06/14 05:59:56;;;;;;;9.07;7.03;;;;;;;19.69;63.93;94781.78;5086234;28;20024;-76
2023/06/14 06:02:22;;;;;;;9.98;7.30;;;;;;;19.71;63.95;94793.94;5084927;28;20028;-77
2023/06/14 06:04:47;;;;;;;8.85;6.45;;;;;;;19.80;63.70;94784.63;5084380;28;20070;-77
2023/06/14 06:07:12;;;;;;;9.73;6.88;;;;;;;19.77;63.61;94786.38;5084850;28;20024;-76
2023/06/14 06:09:38;;;;;;;8.23;6.97;;;;;;;19.80;63.83;94787.41;5085907;28;20046;-76
2023/06/14 06:12:06;;;;;;;7.65;6.32;;;;;;;19.68;64.24;94783.81;5086237;28;20076;-76
2023/06/14 06:14:32;;;;;;;8.35;6.70;;;;;;;19.66;64.43;94772.38;5071468;28;20505;-76
2023/06/14 06:16:57;;;;;;;9.57;6.70;;;;;;;19.84;63.57;94791.50;5088665;28;20032;-77
2023/06/14 06:19:24;;;;;;;12.18;6.82;;;;;;;19.83;63.71;94787.16;5088443;28;20103;-78
2023/06/14 06:21:50;;;;;;;7.72;5.85;;;;;;;19.82;63.76;94782.84;5071427;28;20035;-78
2023/06/14 06:24:16;;;;;;;9.18;6.53;;;;;;;19.95;63.30;94793.53;5088332;28;20016;-78
2023/06/14 06:26:41;;;;;;;7.43;6.53;;;;;;;19.87;63.34;94796.06;5070633;28;20494;-78
2023/06/14 06:29:07;;;;;;;8.27;6.57;;;;;;;19.83;63.29;94792.72;5071196;28;20035;-79
2023/06/14 06:31:32;;;;;;;10.85;7.82;;;;;;;19.80;63.29;94788.16;5071420;28;20024;-78
2023/06/14 06:33:58;;;;;;;10.82;7.20;;;;;;;20.02;63.02;94792.31;5072784;28;20501;-79
2023/06/14 06:36:24;;;;;;;8.30;6.95;;;;;;;20.09;62.94;94789.78;5070857;28;20122;-79
2023/06/14 06:38:50;;;;;;;8.82;7.60;;;;;;;20.16;62.89;94794.88;5071066;28;20548;-78
2023/06/14 06:41:16;;;;;;;10.50;7.45;;;;;;;20.27;62.53;94799.72;5087850;28;20032;-78
2023/06/14 06:43:41;;;;;;;11.02;7.80;;;;;;;20.31;62.29;94797.47;5087761;28;20395;-78
2023/06/14 06:46:07;;;;;;;9.98;7.47;;;;;;;20.50;61.89;94794.22;5070750;28;20437;-79
2023/06/14 06:48:32;;;;;;;10.13;7.32;;;;;;;20.53;61.98;94793.19;5087734;28;20020;-76
2023/06/14 06:50:57;;;;;;;10.07;7.60;;;;;;;20.75;60.74;94792.44;5089273;28;20035;-76
2023/06/14 06:53:23;;;;;;;11.30;8.20;;;;;;;20.80;60.48;94791.69;5071039;28;20166;-76
2023/06/14 06:55:48;;;;;;;10.18;7.25;;;;;;;20.89;60.72;94795.00;5090516;28;20482;-80
2023/06/14 06:58:13;;;;;;;8.88;7.90;;;;;;;21.09;60.25;94793.22;5089092;28;20107;-76
2023/06/14 07:00:39;;;;;;;11.00;8.32;;;;;;;21.24;59.47;94801.31;5089331;28;20024;-77
2023/06/14 07:03:05;;;;;;;9.75;8.52;;;;;;;21.32;58.80;94796.75;5088966;28;20101;-74
2023/06/14 07:05:30;;;;;;;11.40;8.45;;;;;;;21.47;58.62;94795.22;5088638;28;20075;-74
2023/06/14 07:07:56;;;;;;;8.43;7.53;;;;;;;21.66;58.71;94791.84;5088628;28;20020;-75
2023/06/14 07:10:21;;;;;;;11.50;8.50;;;;;;;21.72;58.02;94800.97;5089067;28;20104;-74
2023/06/14 07:12:47;;;;;;;10.10;8.60;;;;;;;21.80;56.89;94796.38;5087647;28;20406;-74
2023/06/14 07:15:12;;;;;;;9.93;8.75;;;;;;;21.92;56.76;94800.66;5088717;28;20020;-73
2023/06/14 07:17:38;;;;;;;11.00;8.55;;;;;;;22.06;56.27;94790.41;5088996;28;20016;-74
2023/06/14 07:20:13;;;;;;;11.63;9.43;;;;;;;22.18;55.64;94791.91;5088347;28;20028;-74
2023/06/14 07:22:43;;;;;;;19.30;12.68;;;;;;;22.24;55.41;94792.63;5088623;28;20138;-74
2023/06/14 07:25:09;;;;;;;12.20;10.00;;;;;;;22.21;55.80;94796.50;5086822;28;20024;-74
2023/06/14 07:27:35;;;;;;;12.20;9.65;;;;;;;22.34;55.45;94795.91;5087102;28;20082;-74
2023/06/14 07:30:01;;;;;;;11.40;8.82;;;;;;;22.39;54.60;94797.91;5087067;28;20035;-74
2023/06/14 07:32:26;;;;;;;13.23;9.57;;;;;;;22.51;53.74;94790.97;5070137;28;20024;-74
2023/06/14 07:34:51;;;;;;;12.32;8.40;;;;;;;22.68;53.86;94799.25;5089002;28;20016;-73
2023/06/14 07:37:17;;;;;;;10.95;9.35;;;;;;;22.73;54.49;94798.44;5086729;28;20031;-74
2023/06/14 07:39:42;;;;;;;12.70;9.35;;;;;;;22.78;55.03;94792.06;5088291;28;20018;-73
2023/06/14 07:42:07;;;;;;;12.00;8.35;;;;;;;22.86;54.51;94795.03;5086552;28;20498;-74
2023/06/14 07:44:33;;;;;;;10.75;9.02;;;;;;;22.78;54.04;94788.50;5086674;28;20016;-73
2023/06/14 07:46:59;;;;;;;11.10;8.77;;;;;;;22.95;52.99;94788.38;5086390;28;20532;-74
2023/06/14 07:49:26;;;;;;;13.20;10.85;;;;;;;23.03;53.38;94797.75;5087884;28;20104;-73
2023/06/14 07:51:51;;;;;;;11.80;10.60;;;;;;;23.09;53.86;94806.09;5070227;28;20072;-74
2023/06/14 07:54:17;;;;;;;12.55;10.75;;;;;;;23.18;53.82;94811.38;5086272;28;20016;-74
2023/06/14 07:56:42;;;;;;;13.57;10.80;;;;;;;23.17;53.57;94807.81;5086846;28;20340;-73
2023/06/14 07:59:08;;;;;;;11.82;10.50;;;;;;;23.16;52.73;94809.09;5069393;28;20070;-74
2023/06/14 08:01:34;;;;;;;11.35;10.20;;;;;;;23.31;52.25;94808.72;5087855;28;20024;-74
2023/06/14 08:04:00;;;;;;;12.70;10.85;;;;;;;23.48;51.31;94814.16;5085910;28;20035;-75
2023/06/14 08:06:26;;;;;;;17.42;11.05;;;;;;;23.49;51.55;94810.81;5087473;28;20048;-73
2023/06/14 08:08:51;;;;;;;12.52;10.75;;;;;;;23.52;51.84;94817.44;5087876;28;20019;-74
2023/06/14 08:11:16;;;;;;;12.20;10.23;;;;;;;23.55;52.05;94816.38;5085861;28;20028;-73
2023/06/14 08:13:42;;;;;;;13.27;9.88;;;;;;;23.62;51.04;94826.25;5087887;28;20020;-74
2023/06/14 08:16:07;;;;;;;12.10;10.48;;;;;;;23.71;50.75;94823.88;5087276;28;20024;-74
2023/06/14 08:18:33;;;;;;;12.30;10.30;;;;;;;23.77;50.47;94823.84;5086354;28;20399;-73
2023/06/14 08:20:58;;;;;;;12.88;10.38;;;;;;;23.76;49.99;94820.25;5087667;28;20123;-75
2023/06/14 08:23:23;;;;;;;11.40;10.18;;;;;;;23.89;50.12;94827.28;5087156;28;20028;-75
2023/06/14 08:25:49;;;;;;;11.27;10.07;;;;;;;23.93;50.24;94822.88;5087347;28;20811;-75
2023/06/14 08:28:14;;;;;;;13.65;11.00;;;;;;;24.10;49.39;94826.25;5068827;28;20032;-74
2023/06/14 08:30:42;;;;;;;13.52;10.45;;;;;;;24.15;49.76;94826.72;5086463;28;20028;-75
2023/06/14 08:33:07;;;;;;;14.15;10.20;;;;;;;24.35;48.74;94824.16;5068779;28;20034;-75
2023/06/14 08:35:33;;;;;;;11.63;10.38;;;;;;;24.43;49.26;94824.34;5085755;28;20028;-76
2023/06/14 08:37:58;;;;;;;11.98;10.15;;;;;;;24.46;49.14;94828.88;5087470;28;20020;-78
2023/06/14 08:40:24;;;;;;;14.55;10.57;;;;;;;24.50;49.41;94822.97;5086815;28;20443;-78
2023/06/14 08:42:54;;;;;;;11.73;10.02;;;;;;;24.67;48.61;94819.94;5068693;28;20024;-79
2023/06/14 08:45:21;;;;;;;11.93;10.20;;;;;;;24.79;48.70;94818.47;5087474;28;20028;-79
2023/06/14 08:47:57;;;;;;;13.50;8.88;;;;;;;24.94;46.99;94809.53;5087353;28;20028;-78
2023/06/14 08:50:26;;;;;;;9.43;8.43;;;;;;;24.94;46.86;94810.28;5087807;28;20024;-81
2023/06/14 08:52:57;;;;;;;10.80;9.70;;;;;;;24.93;47.24;94808.78;5086827;28;20051;-75
2023/06/14 08:55:26;;;;;;;12.80;10.63;;;;;;;25.05;47.32;94814.97;5085158;28;20028;-77
2023/06/14 08:57:54;;;;;;;11.50;9.80;;;;;;;25.10;46.24;94806.50;5085615;28;20537;-76
2023/06/14 09:00:20;;;;;;;10.80;9.35;;;;;;;25.23;46.36;94814.19;5084983;28;20407;-76
2023/06/14 09:02:46;;;;;;;9.73;8.02;;;;;;;25.22;45.96;94811.94;5085240;28;20035;-76
2023/06/14 09:05:13;;;;;;;10.63;8.52;;;;;;;25.33;45.31;94814.56;5068238;28;20043;-77
2023/06/14 09:07:42;;;;;;;11.43;8.77;;;;;;;25.36;45.57;94814.25;5085174;28;20027;-75
2023/06/14 09:10:12;;;;;;;12.38;8.90;;;;;;;25.60;45.07;94810.50;5084678;28;20034;-77
2023/06/14 09:12:37;;;;;;;12.88;8.98;;;;;;;25.69;45.47;94801.63;5085335;28;20486;-76
2023/06/14 09:15:05;;;;;;;9.68;8.63;;;;;;;25.74;44.95;94788.75;5085495;28;20032;-76
2023/06/14 09:17:38;;;;;;;10.25;8.82;;;;;;;25.86;44.87;94790.09;5068059;28;20115;-76
2023/06/14 09:20:13;;;;;;;13.50;9.20;;;;;;;25.99;45.44;94788.56;5085249;28;20115;-75
2023/06/14 09:22:39;;;;;;;9.07;8.13;;;;;;;26.03;45.41;94798.16;5087051;28;20374;-74
2023/06/14 09:25:05;;;;;;;9.88;8.85;;;;;;;26.13;43.67;94795.66;5085126;28;20036;-75
2023/06/14 09:27:32;;;;;;;10.35;8.85;;;;;;;26.30;43.64;94789.69;5068196;28;20025;-78
2023/06/14 09:29:57;;;;;;;9.82;8.85;;;;;;;26.29;44.13;94783.31;5068279;28;20333;-77
2023/06/14 09:32:23;;;;;;;8.93;8.02;;;;;;;26.19;43.65;94796.31;5085014;28;20125;-78
2023/06/14 09:34:49;;;;;;;11.20;8.90;;;;;;;26.26;43.72;94786.44;5085040;28;20035;-79
2023/06/14 09:37:28;;;;;;;12.98;10.60;;;;;;;26.29;43.77;94799.44;5068427;28;20128;-78
2023/06/14 09:39:54;;;;;;;19.33;12.65;;;;;;;26.25;43.68;94793.38;5085452;28;20031;-78
2023/06/14 09:42:19;;;;;;;13.70;9.48;;;;;;;26.26;43.87;94786.44;5084557;28;20031;-79
2023/06/14 09:44:48;;;;;;;13.70;8.48;;;;;;;26.24;43.70;94786.22;5068218;28;20050;-77
2023/06/14 09:47:15;;;;;;;9.40;7.50;;;;;;;26.28;43.69;94781.78;5085224;28;20544;-79
2023/06/14 09:49:41;;;;;;;8.45;7.57;;;;;;;26.25;43.40;94773.66;5071570;28;20124;-79
2023/06/14 09:52:10;;;;;;;9.82;8.63;;;;;;;26.46;43.03;94785.78;5071741;28;20133;-79
2023/06/14 09:54:42;;;;;;;8.48;7.68;;;;;;;26.69;42.84;94780.41;5071593;28;20039;-78
2023/06/14 09:57:08;;;;;;;10.48;9.48;;;;;;;26.90;42.67;94777.63;5090310;28;20162;-77
2023/06/14 09:59:34;;;;;;;9.50;8.50;;;;;;;26.95;42.54;94768.22;5089836;28;20118;-78
2023/06/14 10:02:03;;;;;;;10.43;8.20;;;;;;;26.97;42.65;94772.03;5071941;28;20465;-80
2023/06/14 10:04:30;;;;;;;10.85;8.27;;;;;;;27.16;42.40;94773.91;5071032;28;20567;-78
2023/06/14 10:06:55;;;;;;;11.25;8.50;;;;;;;27.26;42.67;94772.88;5071572;28;20113;-79
2023/06/14 10:09:26;;;;;;;10.50;9.40;;;;;;;27.35;40.92;94763.16;5088854;28;20119;-81
2023/06/14 10:11:51;;;;;;;9.95;8.90;;;;;;;27.53;40.38;94767.06;5072027;28;20149;-76
2023/06/14 10:14:18;;;;;;;9.85;7.72;;;;;;;27.71;40.37;94757.63;5088458;28;20115;-81
2023/06/14 10:16:56;;;;;;;8.30;7.38;;;;;;;28.15;40.30;94756.88;5088100;28;20020;-80
2023/06/14 10:19:34;;;;;;;10.93;7.70;;;;;;;28.49;40.09;94751.78;5090223;28;20024;-80
2023/06/14 10:22:22;;;;;;;9.07;8.18;;;;;;;28.70;39.43;94745.25;5072011;28;20024;-78
2023/06/14 10:24:50;;;;;;;8.43;7.53;;;;;;;28.74;39.28;94749.22;5087921;28;20028;-81
2023/06/14 10:27:23;;;;;;;8.27;7.47;;;;;;;28.97;38.75;94754.94;5088421;28;20039;-82
2023/06/14 10:29:57;;;;;;;9.23;7.65;;;;;;;29.08;37.14;94751.00;5088056;28;20024;-77
2023/06/14 10:32:24;;;;;;;10.25;7.90;;;;;;;29.26;36.99;94747.03;5089782;28;20475;-79
2023/06/14 10:34:57;;;;;;;9.57;8.13;;;;;;;29.60;36.67;94751.56;5070719;28;20032;-79
2023/06/14 10:37:22;;;;;;;10.55;7.60;;;;;;;29.60;36.43;94746.66;5089232;28;20031;-79
2023/06/14 10:39:47;;;;;;;8.65;7.72;;;;;;;29.64;36.78;94746.25;5087888;28;20020;-78
2023/06/14 10:42:14;;;;;;;10.45;7.57;;;;;;;29.55;36.82;94744.03;5087959;28;20032;-78
2023/06/14 10:44:45;;;;;;;9.25;7.85;;;;;;;29.54;36.40;94739.69;5070966;28;20027;-79
2023/06/14 10:47:26;;;;;;;8.63;7.72;;;;;;;29.67;36.50;94733.81;5087864;28;20024;-80
2023/06/14 10:49:56;;;;;;;9.23;8.32;;;;;;;29.93;35.66;94735.44;5071000;28;20039;-80
2023/06/14 10:52:25;;;;;;;8.90;8.00;;;;;;;30.10;34.49;94729.91;5089683;28;20028;-80
2023/06/14 10:55:10;;;;;;;9.00;8.02;;;;;;;30.23;34.85;94728.97;5070603;28;20016;-77
2023/06/14 10:57:45;;;;;;;9.10;7.90;;;;;;;30.34;34.59;94724.94;5088893;28;20020;-78
2023/06/14 11:00:12;;;;;;;9.07;7.80;;;;;;;30.35;34.65;94726.44;5070736;28;20048;-79
2023/06/14 11:03:04;;;;;;;7.00;6.35;;;;;;;30.18;36.41;94724.25;5089704;28;20495;-75
2023/06/14 11:05:30;;;;;;;10.25;7.32;;;;;;;29.79;36.52;94705.84;5071786;28;20052;-75
2023/06/14 11:08:11;;;;;;;8.85;7.32;;;;;;;29.70;35.63;94706.41;5087413;28;20388;-75
2023/06/14 11:10:38;;;;;;;7.18;6.40;;;;;;;29.74;37.05;94704.72;5087374;28;20398;-76
2023/06/14 11:13:04;;;;;;;8.70;7.88;;;;;;;29.62;36.58;94715.69;5087661;28;20547;-73
2023/06/14 11:15:33;;;;;;;9.27;8.38;;;;;;;29.32;35.78;94705.13;5087712;28;20028;-73
2023/06/14 11:18:07;;;;;;;8.90;7.75;;;;;;;29.31;36.72;94708.53;5086900;28;20024;-74
2023/06/14 11:20:35;;;;;;;11.32;8.50;;;;;;;29.25;36.25;94697.41;5087430;28;20024;-74
2023/06/14 11:23:01;;;;;;;8.98;8.00;;;;;;;29.27;36.75;94699.66;5088363;28;20035;-74
2023/06/14 11:25:28;;;;;;;11.10;10.00;;;;;;;29.05;36.19;94696.28;5087043;28;20028;-73
2023/06/14 11:27:53;;;;;;;11.65;9.50;;;;;;;29.08;36.21;94700.81;5087228;28;20020;-73